SPCL/PCL METAR and TAF weather

Enter ICAO airport designator
Station Type Date Time Source
SPCL METAR 2019/08/22 09:00 UTC NOAA

SPCL 220900Z 20002KT 9999 SCT020 SCT070 22/21 Q1016 RMK PP000


Station Type Date Time Source
SPCL Decoded METAR 2019/08/22 09:00 UTC NOAA

Station name not available
Aug 22, 2019 - 05:00 AM EDT / 2019.08.22 0900 UTC
Wind: from the SSW (200 degrees) at 2 MPH (2 KT):0
Visibility: greater than 7 mile(s):0
Sky conditions: partly cloudy
Temperature: 71 F (22 C)
Dew Point: 69 F (21 C)
Relative Humidity: 94%
Pressure (altimeter): 30.00 in. Hg (1016 hPa)
ob: SPCL 220900Z 20002KT 9999 SCT020 SCT070 22/21 Q1016 RMK PP000
cycle: 9

Station Type Date Time Source
SPCL TAF 2019/08/22 06:33 UTC NOAA

TAF SPCL 220500Z 2206/2306 VRB02KT 9999 SCT020 SCT080 TX34/2220Z TN21/2211Z
TEMPO 2209/2212 1000 BCFG BKN005 SCT080
TEMPO 2222/2302 06012KT 4000 SHRA BKN015 FEW025TCU BKN070

Example: see airport list